sensor_id;sensor_type;location;lat;lon;timestamp;pressure;altitude;pressure_sealevel;temperature
18474;BMP180;30265;52.408;13.500;2023-08-21T00:09:46;331544.00;;;232.30
18474;BMP180;30265;52.408;13.500;2023-08-21T00:20:09;331544.00;;;232.30
18474;BMP180;30265;52.408;13.500;2023-08-21T00:30:33;331544.00;;;232.30
18474;BMP180;30265;52.408;13.500;2023-08-21T00:40:55;331544.00;;;232.30
18474;BMP180;30265;52.408;13.500;2023-08-21T00:51:19;331544.00;;;232.30
18474;BMP180;30265;52.408;13.500;2023-08-21T01:01:41;331544.00;;;232.30
18474;BMP180;30265;52.408;13.500;2023-08-21T01:12:11;331544.00;;;232.30
18474;BMP180;30265;52.408;13.500;2023-08-21T01:22:35;331544.00;;;232.30
18474;BMP180;30265;52.408;13.500;2023-08-21T01:33:04;331544.00;;;232.30
18474;BMP180;30265;52.408;13.500;2023-08-21T01:43:29;331544.00;;;232.30
18474;BMP180;30265;52.408;13.500;2023-08-21T01:53:52;331544.00;;;232.30
18474;BMP180;30265;52.408;13.500;2023-08-21T02:04:13;331544.00;;;232.30
18474;BMP180;30265;52.408;13.500;2023-08-21T02:14:36;331544.00;;;232.30
18474;BMP180;30265;52.408;13.500;2023-08-21T02:24:57;331544.00;;;232.30
18474;BMP180;30265;52.408;13.500;2023-08-21T02:35:20;331544.00;;;232.30
18474;BMP180;30265;52.408;13.500;2023-08-21T02:45:43;331544.00;;;232.30
18474;BMP180;30265;52.408;13.500;2023-08-21T02:56:07;331544.00;;;232.30
18474;BMP180;30265;52.408;13.500;2023-08-21T03:06:31;331544.00;;;232.30
18474;BMP180;30265;52.408;13.500;2023-08-21T03:16:53;331544.00;;;232.30
18474;BMP180;30265;52.408;13.500;2023-08-21T03:27:15;331544.00;;;232.30
18474;BMP180;30265;52.408;13.500;2023-08-21T03:37:39;331544.00;;;232.30
18474;BMP180;30265;52.408;13.500;2023-08-21T03:48:05;331544.00;;;232.30
18474;BMP180;30265;52.408;13.500;2023-08-21T03:58:28;331544.00;;;232.30
18474;BMP180;30265;52.408;13.500;2023-08-21T04:08:50;331544.00;;;232.30
18474;BMP180;30265;52.408;13.500;2023-08-21T04:19:13;331544.00;;;232.30
18474;BMP180;30265;52.408;13.500;2023-08-21T04:29:35;331544.00;;;232.30
18474;BMP180;30265;52.408;13.500;2023-08-21T04:39:58;331544.00;;;232.30
18474;BMP180;30265;52.408;13.500;2023-08-21T04:50:20;331544.00;;;232.30
18474;BMP180;30265;52.408;13.500;2023-08-21T05:00:45;331544.00;;;232.30
18474;BMP180;30265;52.408;13.500;2023-08-21T05:11:09;331544.00;;;232.30
18474;BMP180;30265;52.408;13.500;2023-08-21T05:21:34;331544.00;;;232.30
18474;BMP180;30265;52.408;13.500;2023-08-21T05:31:55;331544.00;;;232.30
18474;BMP180;30265;52.408;13.500;2023-08-21T05:42:18;331544.00;;;232.30
18474;BMP180;30265;52.408;13.500;2023-08-21T05:52:40;331544.00;;;232.30
18474;BMP180;30265;52.408;13.500;2023-08-21T06:03:05;331544.00;;;232.30
18474;BMP180;30265;52.408;13.500;2023-08-21T06:13:38;331544.00;;;232.30
18474;BMP180;30265;52.408;13.500;2023-08-21T06:24:01;331544.00;;;232.30
18474;BMP180;30265;52.408;13.500;2023-08-21T06:34:26;331544.00;;;232.30
18474;BMP180;30265;52.408;13.500;2023-08-21T06:44:50;331544.00;;;232.30
18474;BMP180;30265;52.408;13.500;2023-08-21T06:55:12;331544.00;;;232.30
18474;BMP180;30265;52.408;13.500;2023-08-21T07:05:36;331544.00;;;232.30
18474;BMP180;30265;52.408;13.500;2023-08-21T07:15:58;331544.00;;;232.30
18474;BMP180;30265;52.408;13.500;2023-08-21T07:26:24;331544.00;;;232.30
18474;BMP180;30265;52.408;13.500;2023-08-21T07:36:45;331544.00;;;232.30
18474;BMP180;30265;52.408;13.500;2023-08-21T07:47:08;331544.00;;;232.30
18474;BMP180;30265;52.408;13.500;2023-08-21T07:57:30;331544.00;;;232.30
18474;BMP180;30265;52.408;13.500;2023-08-21T08:07:53;331607.00;;;232.30
18474;BMP180;30265;52.408;13.500;2023-08-21T08:18:15;331678.00;;;232.30
18474;BMP180;30265;52.408;13.500;2023-08-21T08:28:38;335921.00;;;232.30
18474;BMP180;30265;52.408;13.500;2023-08-21T08:39:00;340929.00;;;232.30
18474;BMP180;30265;52.408;13.500;2023-08-21T08:49:23;337155.00;;;232.30
18474;BMP180;30265;52.408;13.500;2023-08-21T08:59:48;340145.00;;;232.30
18474;BMP180;30265;52.408;13.500;2023-08-21T09:10:14;17257.00;;;232.30
18474;BMP180;30265;52.408;13.500;2023-08-21T09:20:36;29150.00;;;232.30
18474;BMP180;30265;52.408;13.500;2023-08-21T09:30:59;39645.00;;;232.30
18474;BMP180;30265;52.408;13.500;2023-08-21T09:41:23;116901.00;;;232.30
18474;BMP180;30265;52.408;13.500;2023-08-21T09:51:47;116903.00;;;232.30
18474;BMP180;30265;52.408;13.500;2023-08-21T10:02:09;116903.00;;;232.30
18474;BMP180;30265;52.408;13.500;2023-08-21T10:12:32;116899.00;;;232.30
18474;BMP180;30265;52.408;13.500;2023-08-21T10:22:56;116908.00;;;232.30
18474;BMP180;30265;52.408;13.500;2023-08-21T10:33:47;116901.00;;;232.30
18474;BMP180;30265;52.408;13.500;2023-08-21T10:44:09;116902.00;;;232.30
18474;BMP180;30265;52.408;13.500;2023-08-21T10:54:44;116904.00;;;232.30
18474;BMP180;30265;52.408;13.500;2023-08-21T11:05:07;116902.00;;;232.30
18474;BMP180;30265;52.408;13.500;2023-08-21T11:15:31;116903.00;;;232.30
18474;BMP180;30265;52.408;13.500;2023-08-21T11:25:53;116906.00;;;232.30
18474;BMP180;30265;52.408;13.500;2023-08-21T11:36:27;116905.00;;;232.30
18474;BMP180;30265;52.408;13.500;2023-08-21T11:46:51;116903.00;;;232.30
18474;BMP180;30265;52.408;13.500;2023-08-21T11:57:15;116901.00;;;232.30
18474;BMP180;30265;52.408;13.500;2023-08-21T12:07:37;116903.00;;;232.30
18474;BMP180;30265;52.408;13.500;2023-08-21T12:18:04;116903.00;;;232.30
18474;BMP180;30265;52.408;13.500;2023-08-21T12:28:26;116907.00;;;232.30
18474;BMP180;30265;52.408;13.500;2023-08-21T12:38:49;116905.00;;;232.30
18474;BMP180;30265;52.408;13.500;2023-08-21T12:49:10;116902.00;;;232.30
18474;BMP180;30265;52.408;13.500;2023-08-21T12:59:33;116902.00;;;232.30
18474;BMP180;30265;52.408;13.500;2023-08-21T13:09:54;116905.00;;;232.30
18474;BMP180;30265;52.408;13.500;2023-08-21T13:20:17;116906.00;;;232.30
18474;BMP180;30265;52.408;13.500;2023-08-21T13:30:39;116905.00;;;232.30
18474;BMP180;30265;52.408;13.500;2023-08-21T13:41:02;116907.00;;;232.30
18474;BMP180;30265;52.408;13.500;2023-08-21T13:51:24;116904.00;;;232.30
18474;BMP180;30265;52.408;13.500;2023-08-21T14:01:48;116905.00;;;232.30
18474;BMP180;30265;52.408;13.500;2023-08-21T14:12:10;116906.00;;;232.30
18474;BMP180;30265;52.408;13.500;2023-08-21T14:22:33;116904.00;;;232.30
18474;BMP180;30265;52.408;13.500;2023-08-21T14:32:55;116900.00;;;232.30
18474;BMP180;30265;52.408;13.500;2023-08-21T14:43:18;116905.00;;;232.30
18474;BMP180;30265;52.408;13.500;2023-08-21T14:53:39;116904.00;;;232.30
18474;BMP180;30265;52.408;13.500;2023-08-21T15:04:02;116900.00;;;232.30
18474;BMP180;30265;52.408;13.500;2023-08-21T15:14:24;116901.00;;;232.30
18474;BMP180;30265;52.408;13.500;2023-08-21T15:24:47;116902.00;;;232.30
18474;BMP180;30265;52.408;13.500;2023-08-21T15:35:09;116896.00;;;232.30
18474;BMP180;30265;52.408;13.500;2023-08-21T15:45:34;116901.00;;;232.30
18474;BMP180;30265;52.408;13.500;2023-08-21T15:55:56;116900.00;;;232.30
18474;BMP180;30265;52.408;13.500;2023-08-21T16:06:19;116903.00;;;232.30
18474;BMP180;30265;52.408;13.500;2023-08-21T16:16:46;116901.00;;;232.30
18474;BMP180;30265;52.408;13.500;2023-08-21T16:27:10;116904.00;;;232.30
18474;BMP180;30265;52.408;13.500;2023-08-21T16:37:31;116906.00;;;232.30
18474;BMP180;30265;52.408;13.500;2023-08-21T16:47:54;116901.00;;;232.30
18474;BMP180;30265;52.408;13.500;2023-08-21T16:58:17;116900.00;;;232.30
18474;BMP180;30265;52.408;13.500;2023-08-21T17:08:43;116904.00;;;232.30
18474;BMP180;30265;52.408;13.500;2023-08-21T17:19:05;116901.00;;;232.30
18474;BMP180;30265;52.408;13.500;2023-08-21T17:29:28;116895.00;;;232.30
18474;BMP180;30265;52.408;13.500;2023-08-21T17:39:49;116903.00;;;232.30
18474;BMP180;30265;52.408;13.500;2023-08-21T17:50:12;116898.00;;;232.30
18474;BMP180;30265;52.408;13.500;2023-08-21T18:00:34;116898.00;;;232.30
18474;BMP180;30265;52.408;13.500;2023-08-21T18:10:57;116899.00;;;232.30
18474;BMP180;30265;52.408;13.500;2023-08-21T18:21:20;116896.00;;;232.30
18474;BMP180;30265;52.408;13.500;2023-08-21T18:31:43;116902.00;;;232.30
18474;BMP180;30265;52.408;13.500;2023-08-21T18:42:04;116787.00;;;232.30
18474;BMP180;30265;52.408;13.500;2023-08-21T18:52:27;112299.00;;;232.30
18474;BMP180;30265;52.408;13.500;2023-08-21T19:02:49;103072.00;;;232.30
18474;BMP180;30265;52.408;13.500;2023-08-21T19:13:16;87997.00;;;232.30
18474;BMP180;30265;52.408;13.500;2023-08-21T19:24:26;63229.00;;;232.30
18474;BMP180;30265;52.408;13.500;2023-08-21T19:34:50;62065.00;;;232.30
18474;BMP180;30265;52.408;13.500;2023-08-21T19:45:13;43346.00;;;232.30
18474;BMP180;30265;52.408;13.500;2023-08-21T19:55:40;24694.00;;;232.30
18474;BMP180;30265;52.408;13.500;2023-08-21T20:06:03;14085.00;;;232.30
18474;BMP180;30265;52.408;13.500;2023-08-21T20:16:28;20093.00;;;232.30
18474;BMP180;30265;52.408;13.500;2023-08-21T20:26:51;30385.00;;;232.30
18474;BMP180;30265;52.408;13.500;2023-08-21T20:37:14;41161.00;;;232.30
18474;BMP180;30265;52.408;13.500;2023-08-21T20:47:35;40375.00;;;232.30
18474;BMP180;30265;52.408;13.500;2023-08-21T20:58:01;35175.00;;;232.30
18474;BMP180;30265;52.408;13.500;2023-08-21T21:08:23;51110.00;;;232.30
18474;BMP180;30265;52.408;13.500;2023-08-21T21:18:46;48982.00;;;232.30
18474;BMP180;30265;52.408;13.500;2023-08-21T21:29:08;15453.00;;;232.30
18474;BMP180;30265;52.408;13.500;2023-08-21T21:39:33;20392.00;;;232.30
18474;BMP180;30265;52.408;13.500;2023-08-21T21:49:54;24319.00;;;232.30
18474;BMP180;30265;52.408;13.500;2023-08-21T22:00:18;29692.00;;;232.30
18474;BMP180;30265;52.408;13.500;2023-08-21T22:10:49;17919.00;;;232.30
18474;BMP180;30265;52.408;13.500;2023-08-21T22:21:12;5641.00;;;232.30
18474;BMP180;30265;52.408;13.500;2023-08-21T22:31:34;345518.00;;;232.30
18474;BMP180;30265;52.408;13.500;2023-08-21T22:42:04;342014.00;;;232.30
18474;BMP180;30265;52.408;13.500;2023-08-21T22:52:25;339943.00;;;232.30
18474;BMP180;30265;52.408;13.500;2023-08-21T23:02:49;339005.00;;;232.30
18474;BMP180;30265;52.408;13.500;2023-08-21T23:13:10;337877.00;;;232.30
18474;BMP180;30265;52.408;13.500;2023-08-21T23:23:33;336768.00;;;232.30
18474;BMP180;30265;52.408;13.500;2023-08-21T23:33:54;336768.00;;;232.30
18474;BMP180;30265;52.408;13.500;2023-08-21T23:44:17;335921.00;;;232.30
18474;BMP180;30265;52.408;13.500;2023-08-21T23:54:38;335461.00;;;232.30
